Aggieland, Texas
Current Conditions -  °F | °C
As of 12:53 AM on Thursday 18 Dec 2014 (Local Time) from KCLL Reporting Station
Overcast Overcast  
Wind Chill: 52°   Ceiling: 800
Heat Index: 52°   Visibility: 10mi
Dew Point: 49°   Wind: 6mph
Humidity: 89%   Direction: 50°NE
Pressure: 30.11"   Gusts: NA
Location:  30.5943°N, 96.3574°W
Report Text: KCLL 180653Z 05005KT 10SM OVC008 11/09 A3011 RMK AO2 SLP194 T01110094
Loading
Personal Weather Stations






























Interactive Weather Map New forecast layout! Learn more

10-Day Weather Forecast

Advertisements
Track Severe Weather on mobile